Time;durP1;ratioP1;P1;durP2;ratioP2;P2;SDS_P1;SDS_P2;PMS_P1;PMS_P2;Temp;Humidity;BMP_temperature;BMP_pressure;BME280_temperature;BME280_humidity;BME280_pressure;Samples;Min_cycle;Max_cycle;Signal;HPM_P1;HPM_P2
2021/07/23 00:00:04;;;;;;;;;;;;;;;29.13;38.03;97496.97;4997602;28;1308;-51
2021/07/23 00:02:29;;;;;;;;;;;;;;;29.07;38.08;97503.72;4995404;28;1593;-50
2021/07/23 00:04:54;;;;;;;;;;;;;;;29.03;38.34;97501.50;5001274;28;1915;-52
2021/07/23 00:07:20;;;;;;;;;;;;;;;29.11;38.26;97502.44;5000584;28;1173;-51
2021/07/23 00:09:45;;;;;;;;;;;;;;;29.02;38.18;97494.50;4998589;28;1681;-50
2021/07/23 00:12:10;;;;;;;;;;;;;;;29.10;37.89;97503.44;5001635;28;1133;-52
2021/07/23 00:14:35;;;;;;;;;;;;;;;29.12;38.15;97498.81;4999762;28;1331;-52
2021/07/23 00:17:01;;;;;;;;;;;;;;;29.15;37.96;97500.31;5001845;28;1165;-52
2021/07/23 00:19:27;;;;;;;;;;;;;;;29.11;38.01;97494.47;4996387;28;1703;-52
2021/07/23 00:21:52;;;;;;;;;;;;;;;29.08;37.92;97500.09;4999780;28;1198;-51
2021/07/23 00:24:17;;;;;;;;;;;;;;;29.05;38.19;97496.88;5000919;28;1993;-50
2021/07/23 00:26:48;;;;;;;;;;;;;;;29.08;38.10;97491.28;4995364;28;1708;-51
2021/07/23 00:29:14;;;;;;;;;;;;;;;29.13;37.81;97489.00;4998866;28;1356;-50
2021/07/23 00:31:39;;;;;;;;;;;;;;;29.13;37.84;97495.16;4999394;28;1166;-51
2021/07/23 00:34:04;;;;;;;;;;;;;;;29.11;37.91;97489.16;4999126;28;1651;-50
2021/07/23 00:36:29;;;;;;;;;;;;;;;29.12;38.01;97482.03;4998920;28;1558;-52
2021/07/23 00:38:54;;;;;;;;;;;;;;;29.17;38.07;97479.78;5000665;28;1074;-52
2021/07/23 00:41:20;;;;;;;;;;;;;;;29.12;37.75;97482.88;4999135;28;1553;-51
2021/07/23 00:43:45;;;;;;;;;;;;;;;29.14;38.02;97483.56;5001269;28;1981;-51
2021/07/23 00:46:10;;;;;;;;;;;;;;;29.06;38.13;97480.78;5000177;28;1329;-52
2021/07/23 00:48:35;;;;;;;;;;;;;;;29.03;37.98;97477.59;4998729;28;1592;-51
2021/07/23 00:51:00;;;;;;;;;;;;;;;29.09;38.17;97480.50;4983011;28;1240;-51
2021/07/23 00:53:26;;;;;;;;;;;;;;;29.12;37.85;97474.06;4982725;28;1261;-50
2021/07/23 00:55:58;;;;;;;;;;;;;;;29.23;37.82;97473.91;4980909;28;1594;-51
2021/07/23 00:58:24;;;;;;;;;;;;;;;29.13;37.77;97467.78;4997976;28;1662;-50
2021/07/23 01:00:49;;;;;;;;;;;;;;;29.09;38.09;97467.25;4994490;28;1401;-52
2021/07/23 01:03:15;;;;;;;;;;;;;;;29.07;38.16;97466.56;4992446;28;1989;-52
2021/07/23 01:05:40;;;;;;;;;;;;;;;29.07;38.00;97466.56;4997825;28;1450;-52
2021/07/23 01:08:05;;;;;;;;;;;;;;;29.12;38.08;97471.41;5000667;28;1173;-52
2021/07/23 01:10:30;;;;;;;;;;;;;;;29.12;38.11;97468.75;4997017;28;1601;-52
2021/07/23 01:12:55;;;;;;;;;;;;;;;29.14;37.82;97466.78;4983188;28;1335;-50
2021/07/23 01:15:21;;;;;;;;;;;;;;;29.09;38.02;97463.75;5000617;28;1320;-52
2021/07/23 01:17:46;;;;;;;;;;;;;;;29.12;37.83;97463.44;5000741;28;1221;-52
2021/07/23 01:20:15;;;;;;;;;;;;;;;29.08;37.90;97457.59;4993349;28;1624;-52
2021/07/23 01:22:40;;;;;;;;;;;;;;;29.09;37.77;97461.09;4999098;28;1294;-51
2021/07/23 01:25:06;;;;;;;;;;;;;;;29.12;37.73;97458.13;4998492;28;1960;-52
2021/07/23 01:27:35;;;;;;;;;;;;;;;29.10;37.97;97460.94;4997010;28;1390;-52
2021/07/23 01:30:09;;;;;;;;;;;;;;;29.09;38.00;97464.59;5001963;28;1194;-52
2021/07/23 01:32:35;;;;;;;;;;;;;;;29.16;37.87;97457.72;4994662;28;1525;-51
2021/07/23 01:35:00;;;;;;;;;;;;;;;29.14;37.74;97459.66;4999069;28;1103;-53
2021/07/23 01:37:25;;;;;;;;;;;;;;;29.11;37.85;97457.31;4999574;28;1233;-52
2021/07/23 01:39:51;;;;;;;;;;;;;;;29.11;38.13;97453.81;4997276;28;1569;-50
2021/07/23 01:42:16;;;;;;;;;;;;;;;29.06;37.81;97450.75;5000124;28;1377;-50
2021/07/23 01:44:42;;;;;;;;;;;;;;;29.13;38.03;97452.66;4996613;28;1942;-52
2021/07/23 01:47:07;;;;;;;;;;;;;;;29.11;37.89;97454.66;5000302;28;1208;-52
2021/07/23 01:49:32;;;;;;;;;;;;;;;29.08;37.97;97452.28;5001432;28;1615;-52
2021/07/23 01:51:57;;;;;;;;;;;;;;;29.13;37.78;97450.00;4997303;28;1623;-52
2021/07/23 01:54:22;;;;;;;;;;;;;;;29.09;37.97;97453.13;5002810;28;1287;-51
2021/07/23 01:56:48;;;;;;;;;;;;;;;29.09;37.83;97458.44;5000445;28;1584;-51
2021/07/23 01:59:13;;;;;;;;;;;;;;;29.09;37.98;97453.97;5003527;28;1364;-52
2021/07/23 02:01:38;;;;;;;;;;;;;;;29.17;37.83;97458.53;5003705;28;1210;-51
2021/07/23 02:04:04;;;;;;;;;;;;;;;29.09;37.70;97450.47;4998190;28;1898;-51
2021/07/23 02:06:29;;;;;;;;;;;;;;;29.07;37.85;97447.09;5003149;28;1471;-51
2021/07/23 02:08:54;;;;;;;;;;;;;;;29.09;37.80;97451.31;5003276;28;1058;-51
2021/07/23 02:11:19;;;;;;;;;;;;;;;29.14;37.82;97457.00;4999075;28;1604;-52
2021/07/23 02:13:44;;;;;;;;;;;;;;;29.13;37.86;97450.00;5002269;28;1410;-50
2021/07/23 02:16:10;;;;;;;;;;;;;;;29.10;37.65;97450.31;5002342;28;1201;-51
2021/07/23 02:18:35;;;;;;;;;;;;;;;29.10;37.92;97446.84;4999232;28;1615;-52
2021/07/23 02:21:00;;;;;;;;;;;;;;;29.07;37.86;97436.47;5004140;28;1147;-51
2021/07/23 02:23:25;;;;;;;;;;;;;;;29.11;37.85;97446.69;4982614;28;1946;-52
2021/07/23 02:25:50;;;;;;;;;;;;;;;29.08;37.78;97439.00;5001026;28;1581;-51
2021/07/23 02:28:16;;;;;;;;;;;;;;;29.17;37.58;97439.94;5002494;28;1554;-51
2021/07/23 02:30:41;;;;;;;;;;;;;;;29.14;37.80;97435.75;5004557;28;1194;-50
2021/07/23 02:33:06;;;;;;;;;;;;;;;29.13;37.87;97439.41;5003076;28;1316;-52
2021/07/23 02:35:31;;;;;;;;;;;;;;;29.16;37.54;97439.13;5000988;28;1585;-52
2021/07/23 02:37:56;;;;;;;;;;;;;;;29.12;37.85;97437.72;5001092;28;1541;-52
2021/07/23 02:40:22;;;;;;;;;;;;;;;29.14;37.76;97437.56;5002188;28;1616;-51
2021/07/23 02:42:47;;;;;;;;;;;;;;;29.10;37.71;97439.69;5002585;28;1284;-51
2021/07/23 02:45:12;;;;;;;;;;;;;;;29.09;37.86;97439.84;5003257;28;1898;-52
2021/07/23 02:47:37;;;;;;;;;;;;;;;29.26;37.45;97444.38;4997636;28;1575;-51
2021/07/23 02:50:03;;;;;;;;;;;;;;;29.12;37.78;97451.00;5002636;28;1265;-51
2021/07/23 02:52:28;;;;;;;;;;;;;;;29.08;37.61;97452.28;5000927;28;1355;-52
2021/07/23 02:54:53;;;;;;;;;;;;;;;29.15;37.76;97455.19;4998881;28;1671;-51
2021/07/23 02:57:18;;;;;;;;;;;;;;;29.10;37.58;97450.31;5001915;28;1277;-51
2021/07/23 02:59:43;;;;;;;;;;;;;;;29.12;37.74;97451.00;4998175;28;1616;-51
2021/07/23 03:02:09;;;;;;;;;;;;;;;29.12;37.52;97451.00;5000550;28;1455;-52
2021/07/23 03:04:34;;;;;;;;;;;;;;;29.07;37.86;97445.31;5003523;28;1910;-52
2021/07/23 03:06:59;;;;;;;;;;;;;;;29.07;37.68;97440.00;5000923;28;1464;-52
2021/07/23 03:09:24;;;;;;;;;;;;;;;29.10;37.66;97445.00;4997619;28;1531;-52
2021/07/23 03:11:49;;;;;;;;;;;;;;;29.15;37.75;97436.59;4999122;28;1629;-51
2021/07/23 03:14:14;;;;;;;;;;;;;;;29.12;37.74;97437.72;4997913;28;1374;-50
2021/07/23 03:16:40;;;;;;;;;;;;;;;29.12;37.71;97437.72;5002543;28;1209;-52
2021/07/23 03:19:05;;;;;;;;;;;;;;;29.10;37.91;97433.56;5002831;28;1177;-53
2021/07/23 03:21:30;;;;;;;;;;;;;;;29.15;37.46;97436.59;4997790;28;2052;-52
2021/07/23 03:23:55;;;;;;;;;;;;;;;29.12;37.68;97443.03;5003712;28;1910;-52
2021/07/23 03:26:20;;;;;;;;;;;;;;;29.14;37.56;97440.22;4999479;28;1667;-51
2021/07/23 03:28:46;;;;;;;;;;;;;;;29.10;37.63;97439.69;4999668;28;1359;-51
2021/07/23 03:31:12;;;;;;;;;;;;;;;29.11;37.58;97436.06;5001222;28;1208;-50
2021/07/23 03:33:37;;;;;;;;;;;;;;;29.09;37.77;97430.06;4997864;28;1381;-52
2021/07/23 03:36:03;;;;;;;;;;;;;;;29.10;37.50;97437.03;5001832;28;1565;-52
2021/07/23 03:38:28;;;;;;;;;;;;;;;29.15;37.36;97439.25;5001908;28;1174;-52
2021/07/23 03:40:53;;;;;;;;;;;;;;;29.23;37.45;97439.38;4999269;28;1607;-54
2021/07/23 03:43:18;;;;;;;;;;;;;;;29.17;37.38;97438.13;5001569;28;1972;-52
2021/07/23 03:45:44;;;;;;;;;;;;;;;29.06;37.53;97432.16;5001915;28;1201;-53
2021/07/23 03:48:09;;;;;;;;;;;;;;;29.17;37.39;97437.31;5001373;28;1320;-52
2021/07/23 03:50:34;;;;;;;;;;;;;;;29.15;37.55;97432.13;5000495;28;1573;-53
2021/07/23 03:52:59;;;;;;;;;;;;;;;29.27;37.35;97424.81;5000125;28;1375;-53
2021/07/23 03:55:25;;;;;;;;;;;;;;;29.08;37.84;97428.41;4999614;28;1546;-52
2021/07/23 03:57:50;;;;;;;;;;;;;;;29.10;37.66;97431.72;4999827;28;1539;-51
2021/07/23 04:00:16;;;;;;;;;;;;;;;29.13;37.49;97419.97;5001408;28;1130;-53
2021/07/23 04:02:42;;;;;;;;;;;;;;;29.10;37.47;97421.09;4999843;28;1557;-53
2021/07/23 04:05:07;;;;;;;;;;;;;;;29.08;37.73;97427.56;4998828;28;1959;-52
2021/07/23 04:07:32;;;;;;;;;;;;;;;29.10;37.56;97426.41;5000628;28;1332;-53
2021/07/23 04:09:58;;;;;;;;;;;;;;;29.14;37.33;97424.28;4999763;28;1572;-52
2021/07/23 04:12:23;;;;;;;;;;;;;;;29.12;37.57;97426.28;4997017;28;1537;-52
2021/07/23 04:14:48;;;;;;;;;;;;;;;29.18;37.35;97431.84;5001385;28;1086;-52
2021/07/23 04:17:14;;;;;;;;;;;;;;;29.12;37.51;97426.28;5000252;28;1011;-52
2021/07/23 04:19:39;;;;;;;;;;;;;;;29.11;37.63;97425.44;4999239;28;1750;-52
2021/07/23 04:22:04;;;;;;;;;;;;;;;29.10;37.32;97433.56;5000027;28;1224;-53
2021/07/23 04:24:29;;;;;;;;;;;;;;;29.13;37.43;97428.78;5000045;28;1968;-52
2021/07/23 04:26:57;;;;;;;;;;;;;;;29.11;37.47;97429.91;4998151;28;1651;-52
2021/07/23 04:29:23;;;;;;;;;;;;;;;29.06;37.50;97437.47;5000459;28;1202;-53
2021/07/23 04:31:48;;;;;;;;;;;;;;;29.09;37.35;97440.69;5000671;28;1157;-53
2021/07/23 04:34:13;;;;;;;;;;;;;;;29.03;37.56;97438.59;4996835;28;1608;-52
2021/07/23 04:36:39;;;;;;;;;;;;;;;29.29;37.05;97437.94;4936678;28;1352;-51
2021/07/23 04:39:05;;;;;;;;;;;;;;;29.13;37.36;97447.34;4999662;28;1256;-51
2021/07/23 04:41:30;;;;;;;;;;;;;;;29.08;37.42;97441.66;4996876;28;1572;-51
2021/07/23 04:43:56;;;;;;;;;;;;;;;29.06;37.58;97446.25;4999371;28;1902;-51
2021/07/23 04:46:21;;;;;;;;;;;;;;;29.12;37.19;97458.97;5000373;28;1202;-51
2021/07/23 04:48:46;;;;;;;;;;;;;;;29.08;37.42;97446.97;5000858;28;1087;-51
2021/07/23 04:51:11;;;;;;;;;;;;;;;29.02;37.36;97450.22;4994291;28;1577;-52
2021/07/23 04:53:36;;;;;;;;;;;;;;;29.15;37.18;97450.72;4998280;28;1387;-51
2021/07/23 04:56:04;;;;;;;;;;;;;;;29.17;37.13;97450.56;4992646;28;1694;-51
2021/07/23 04:58:29;;;;;;;;;;;;;;;29.18;37.04;97446.94;4999367;28;1605;-52
2021/07/23 05:00:55;;;;;;;;;;;;;;;29.09;37.48;97445.16;5000450;28;1197;-52
2021/07/23 05:03:23;;;;;;;;;;;;;;;29.09;37.44;97451.31;4997875;28;1974;-52
2021/07/23 05:05:48;;;;;;;;;;;;;;;29.12;37.13;97456.31;4997779;28;1566;-53
2021/07/23 05:08:14;;;;;;;;;;;;;;;29.11;37.48;97459.13;4982981;28;1356;-53
2021/07/23 05:10:42;;;;;;;;;;;;;;;29.09;37.29;97445.16;4995215;28;1650;-52
2021/07/23 05:13:08;;;;;;;;;;;;;;;29.12;37.27;97445.69;4982512;28;1358;-51
2021/07/23 05:15:33;;;;;;;;;;;;;;;29.13;37.30;97442.06;4979068;28;1349;-51
2021/07/23 05:17:58;;;;;;;;;;;;;;;29.14;37.02;97435.75;4995954;28;1678;-52
2021/07/23 05:20:23;;;;;;;;;;;;;;;29.16;36.98;97441.78;4983077;28;1186;-52
2021/07/23 05:22:49;;;;;;;;;;;;;;;29.19;37.17;97444.13;4998621;28;1283;-52
2021/07/23 05:25:14;;;;;;;;;;;;;;;29.11;37.45;97438.72;4997939;28;1906;-53
2021/07/23 05:27:39;;;;;;;;;;;;;;;29.12;37.29;97436.88;4998313;28;1423;-52
2021/07/23 05:30:04;;;;;;;;;;;;;;;29.15;37.33;97434.78;5000422;28;1111;-53
2021/07/23 05:32:30;;;;;;;;;;;;;;;29.16;37.00;97444.44;4999322;28;1373;-53
2021/07/23 05:34:55;;;;;;;;;;;;;;;29.17;37.07;97439.94;4996602;28;1644;-52
2021/07/23 05:37:20;;;;;;;;;;;;;;;29.16;37.16;97444.44;4999969;28;1170;-52
2021/07/23 05:39:45;;;;;;;;;;;;;;;29.19;37.05;97444.13;4998259;28;1655;-53
2021/07/23 05:42:11;;;;;;;;;;;;;;;29.14;37.23;97451.69;4998038;28;1312;-51
2021/07/23 05:44:36;;;;;;;;;;;;;;;29.08;37.58;97454.94;4997385;28;1902;-52
2021/07/23 05:47:01;;;;;;;;;;;;;;;29.09;37.27;97453.97;4999030;28;1138;-53
2021/07/23 05:49:27;;;;;;;;;;;;;;;29.17;37.11;97454.06;4998012;28;1579;-51
2021/07/23 05:51:52;;;;;;;;;;;;;;;29.10;37.20;97460.09;5000081;28;1055;-52
2021/07/23 05:54:17;;;;;;;;;;;;;;;29.12;37.24;97452.81;4997745;28;1403;-53
2021/07/23 05:56:43;;;;;;;;;;;;;;;29.15;36.95;97455.19;4997083;28;1553;-52
2021/07/23 05:59:08;;;;;;;;;;;;;;;29.13;37.43;97450.00;4997575;28;1400;-53
2021/07/23 06:01:33;;;;;;;;;;;;;;;29.18;37.18;97453.09;5001259;28;1789;-50
2021/07/23 06:03:59;;;;;;;;;;;;;;;29.18;37.06;97453.09;4993896;28;1911;-53
2021/07/23 06:06:24;;;;;;;;;;;;;;;29.14;37.17;97446.38;4998729;28;1190;-54
2021/07/23 06:08:50;;;;;;;;;;;;;;;29.13;37.26;97450.00;4998006;28;1426;-52
2021/07/23 06:11:15;;;;;;;;;;;;;;;29.20;37.16;97444.97;4996500;28;1576;-52
2021/07/23 06:13:40;;;;;;;;;;;;;;;29.17;36.97;97443.44;4997815;28;1328;-52
2021/07/23 06:16:05;;;;;;;;;;;;;;;29.12;37.14;97447.50;4999414;28;1256;-51
2021/07/23 06:18:31;;;;;;;;;;;;;;;29.22;37.29;97442.16;4996700;28;1599;-52
2021/07/23 06:20:56;;;;;;;;;;;;;;;29.22;37.22;97444.81;4999173;28;1088;-51
2021/07/23 06:23:21;;;;;;;;;;;;;;;29.14;37.21;97440.22;4996965;28;1918;-52
2021/07/23 06:25:46;;;;;;;;;;;;;;;29.15;36.95;97445.41;4997626;28;1566;-53
2021/07/23 06:28:11;;;;;;;;;;;;;;;29.14;37.40;97442.88;4997829;28;1381;-51
2021/07/23 06:30:37;;;;;;;;;;;;;;;29.13;37.39;97449.19;4999787;28;1129;-52
2021/07/23 06:33:02;;;;;;;;;;;;;;;29.21;37.22;97451.94;4997231;28;1680;-53
2021/07/23 06:35:30;;;;;;;;;;;;;;;29.19;37.31;97437.97;5000047;28;1154;-52
2021/07/23 06:37:55;;;;;;;;;;;;;;;29.15;37.39;97447.22;5002261;28;1345;-53
2021/07/23 06:40:20;;;;;;;;;;;;;;;29.13;37.02;97444.69;5001970;28;2027;-53
2021/07/23 06:42:46;;;;;;;;;;;;;;;29.08;37.38;97446.97;5002584;28;1309;-53
2021/07/23 06:45:11;;;;;;;;;;;;;;;29.22;36.85;97450.97;5002779;28;1890;-52
2021/07/23 06:47:36;;;;;;;;;;;;;;;29.15;37.24;97445.41;5000739;28;1276;-51
2021/07/23 06:50:02;;;;;;;;;;;;;;;29.16;37.24;97449.75;5000142;28;1537;-52
2021/07/23 06:52:27;;;;;;;;;;;;;;;29.24;37.04;97448.19;5001663;28;1491;-54
2021/07/23 06:54:53;;;;;;;;;;;;;;;29.17;37.24;97440.78;5000917;28;1606;-52
2021/07/23 06:57:19;;;;;;;;;;;;;;;29.17;37.05;97440.78;4999859;28;1466;-52
2021/07/23 06:59:44;;;;;;;;;;;;;;;29.10;37.37;97452.97;4998858;28;2130;-53
2021/07/23 07:02:09;;;;;;;;;;;;;;;29.05;37.34;97446.41;4997315;28;1604;-53
2021/07/23 07:04:35;;;;;;;;;;;;;;;29.15;37.05;97448.06;4993097;28;1972;-53
2021/07/23 07:07:01;;;;;;;;;;;;;;;29.17;37.10;97442.59;4997815;28;1219;-51
2021/07/23 07:09:27;;;;;;;;;;;;;;;29.21;37.15;97441.31;5000046;28;1090;-52
2021/07/23 07:11:52;;;;;;;;;;;;;;;29.20;37.20;97443.13;4995682;28;1727;-51
2021/07/23 07:14:17;;;;;;;;;;;;;;;29.15;37.16;97439.25;4996015;28;1608;-52
2021/07/23 07:16:43;;;;;;;;;;;;;;;29.18;36.94;97441.63;4995688;28;1162;-53
2021/07/23 07:19:08;;;;;;;;;;;;;;;29.08;37.47;97443.50;4998481;28;1248;-51
2021/07/23 07:21:33;;;;;;;;;;;;;;;29.17;37.19;97438.13;4999462;28;1261;-54
2021/07/23 07:24:00;;;;;;;;;;;;;;;29.11;37.39;97438.72;4997008;28;1906;-53
2021/07/23 07:26:25;;;;;;;;;;;;;;;29.12;37.47;97432.41;4995242;28;1577;-53
2021/07/23 07:28:50;;;;;;;;;;;;;;;29.17;37.13;97440.78;4996363;28;2025;-52
2021/07/23 07:31:16;;;;;;;;;;;;;;;29.16;37.30;97438.28;4999255;28;1261;-52
2021/07/23 07:33:44;;;;;;;;;;;;;;;29.16;37.36;97438.28;4998330;28;1307;-52
2021/07/23 07:36:09;;;;;;;;;;;;;;;29.17;37.26;97440.78;4995400;28;1597;-53
2021/07/23 07:38:36;;;;;;;;;;;;;;;29.16;37.08;97440.94;4995771;28;1403;-53
2021/07/23 07:41:02;;;;;;;;;;;;;;;29.11;37.37;97441.38;4996391;28;1524;-51
2021/07/23 07:43:27;;;;;;;;;;;;;;;29.24;37.15;97437.56;4995905;28;1930;-53
2021/07/23 07:45:54;;;;;;;;;;;;;;;29.20;37.31;97443.13;4998318;28;1039;-52
2021/07/23 07:48:21;;;;;;;;;;;;;;;29.19;37.25;97437.97;4989929;28;1636;-52
2021/07/23 07:50:46;;;;;;;;;;;;;;;29.15;37.23;97434.78;4995673;28;1150;-53
2021/07/23 07:53:12;;;;;;;;;;;;;;;29.20;37.20;97440.47;4993435;28;1240;-54
2021/07/23 07:55:37;;;;;;;;;;;;;;;29.17;37.23;97438.13;4995724;28;1626;-52
2021/07/23 07:58:02;;;;;;;;;;;;;;;29.16;37.28;97433.81;4994095;28;1228;-51
2021/07/23 08:00:28;;;;;;;;;;;;;;;29.20;37.41;97437.00;4994843;28;1269;-53
2021/07/23 08:02:53;;;;;;;;;;;;;;;29.25;37.46;97433.91;4994934;28;1608;-52
2021/07/23 08:05:18;;;;;;;;;;;;;;;29.10;37.76;97431.72;4995535;28;1981;-52
2021/07/23 08:07:43;;;;;;;;;;;;;;;29.16;37.61;97425.84;4995098;28;1511;-53
2021/07/23 08:10:13;;;;;;;;;;;;;;;28.85;37.96;97427.88;4994853;28;1513;-52
2021/07/23 08:12:38;;;;;;;;;;;;;;;28.99;37.88;97423.09;4993575;28;1291;-54
2021/07/23 08:15:03;;;;;;;;;;;;;;;28.89;37.98;97426.59;4996000;28;1153;-53
2021/07/23 08:17:29;;;;;;;;;;;;;;;28.69;38.35;97426.81;4994349;28;1529;-54
2021/07/23 08:19:57;;;;;;;;;;;;;;;28.93;37.84;97421.88;4996180;28;1277;-53
2021/07/23 08:22:22;;;;;;;;;;;;;;;28.60;38.53;97426.69;4991959;28;1524;-54
2021/07/23 08:24:48;;;;;;;;;;;;;;;28.84;37.98;97417.41;4992280;28;1970;-54
2021/07/23 08:27:15;;;;;;;;;;;;;;;28.74;38.15;97422.72;4996630;28;1197;-54
2021/07/23 08:29:41;;;;;;;;;;;;;;;28.78;38.10;97424.13;4995321;28;1787;-53
2021/07/23 08:32:06;;;;;;;;;;;;;;;28.72;38.24;97423.88;4995009;28;1127;-53
2021/07/23 08:34:32;;;;;;;;;;;;;;;28.73;38.31;97415.75;4995406;28;1398;-54
2021/07/23 08:36:57;;;;;;;;;;;;;;;28.70;38.32;97417.88;4994826;28;1743;-54
2021/07/23 08:39:22;;;;;;;;;;;;;;;28.85;38.08;97414.63;4995022;28;1173;-53
2021/07/23 08:41:47;;;;;;;;;;;;;;;28.84;38.16;97422.72;4991303;28;1564;-53
2021/07/23 08:44:13;;;;;;;;;;;;;;;28.70;38.28;97416.06;4991690;28;1985;-52
2021/07/23 08:46:38;;;;;;;;;;;;;;;28.63;38.59;97420.25;4995541;28;1222;-54
2021/07/23 08:49:05;;;;;;;;;;;;;;;28.68;38.56;97414.53;4998017;28;1624;-54
2021/07/23 08:51:31;;;;;;;;;;;;;;;28.68;38.29;97418.03;4997782;28;1616;-53
2021/07/23 08:53:56;;;;;;;;;;;;;;;28.71;38.34;97416.88;4996640;28;1672;-54
2021/07/23 08:56:21;;;;;;;;;;;;;;;28.62;38.42;97413.28;4980754;28;1578;-54
2021/07/23 08:58:46;;;;;;;;;;;;;;;28.68;38.46;97410.06;4994498;28;1478;-53
2021/07/23 09:01:12;;;;;;;;;;;;;;;28.56;38.72;97408.53;4989631;28;1735;-53
2021/07/23 09:03:37;;;;;;;;;;;;;;;28.71;38.46;97422.19;4994834;28;1889;-52
2021/07/23 09:06:17;;;;;;;;;;;;;;;28.68;38.43;97420.69;4978340;28;1593;-55
2021/07/23 09:08:49;;;;;;;;;;;;;;;28.67;38.25;97423.44;4999667;28;1217;-53
2021/07/23 09:11:15;;;;;;;;;;;;;;;28.75;38.21;97423.56;4995391;28;1660;-54
2021/07/23 09:13:40;;;;;;;;;;;;;;;28.68;38.48;97414.53;4997972;28;1556;-52
2021/07/23 09:16:22;;;;;;;;;;;;;;;28.67;38.35;97413.66;5000032;28;1237;-53
2021/07/23 09:18:47;;;;;;;;;;;;;;;28.63;38.39;97414.94;4999131;28;1532;-54
2021/07/23 09:21:12;;;;;;;;;;;;;;;28.68;38.43;97411.88;4999960;28;1572;-54
2021/07/23 09:26:08;;;;;;;;;;;;;;;28.69;38.32;97408.25;4999608;28;1544;-53
2021/07/23 09:28:34;;;;;;;;;;;;;;;28.70;38.33;97412.56;4999425;28;1272;-52
2021/07/23 09:31:00;;;;;;;;;;;;;;;28.65;38.42;97403.22;5002464;28;1190;-52
2021/07/23 09:33:26;;;;;;;;;;;;;;;28.73;38.45;97406.97;5000502;28;1340;-52
2021/07/23 09:35:55;;;;;;;;;;;;;;;28.69;38.40;97400.28;5008789;28;1610;-53
2021/07/23 09:38:21;;;;;;;;;;;;;;;28.59;38.52;97395.81;5008795;28;1107;-51
2021/07/23 09:40:46;;;;;;;;;;;;;;;28.46;38.89;97399.78;4992392;28;1660;-52
2021/07/23 09:43:11;;;;;;;;;;;;;;;28.52;38.66;97401.88;5007366;28;1520;-52
2021/07/23 09:45:37;;;;;;;;;;;;;;;28.50;39.07;97403.81;5007582;28;1983;-52
2021/07/23 09:48:11;;;;;;;;;;;;;;;28.60;38.77;97397.50;5006629;28;1552;-50
2021/07/23 09:50:40;;;;;;;;;;;;;;;28.73;38.33;97394.53;5009860;28;1249;-52
2021/07/23 09:53:09;;;;;;;;;;;;;;;28.62;38.67;97384.94;5008937;28;1118;-51
2021/07/23 09:55:34;;;;;;;;;;;;;;;28.69;38.28;97381.72;5008478;28;1654;-52
2021/07/23 09:57:59;;;;;;;;;;;;;;;28.69;38.30;97379.06;5006927;28;1193;-52
2021/07/23 10:00:26;;;;;;;;;;;;;;;28.64;38.47;97382.97;4992095;28;1178;-50
2021/07/23 10:02:53;;;;;;;;;;;;;;;28.56;38.57;97380.19;5009781;28;1134;-52
2021/07/23 10:05:20;;;;;;;;;;;;;;;28.73;38.49;97378.59;5005884;28;1969;-52
2021/07/23 10:07:47;;;;;;;;;;;;;;;28.72;38.22;97386.72;4992215;28;1111;-52
2021/07/23 10:10:15;;;;;;;;;;;;;;;28.76;38.23;97375.69;5010436;28;1607;-51
2021/07/23 10:12:43;;;;;;;;;;;;;;;28.69;38.39;97379.88;5010663;28;1370;-51
2021/07/23 10:15:09;;;;;;;;;;;;;;;28.62;38.43;97374.31;5013329;28;1342;-50
2021/07/23 10:17:34;;;;;;;;;;;;;;;28.65;38.32;97367.88;5012374;28;1646;-50
2021/07/23 10:20:00;;;;;;;;;;;;;;;28.65;38.49;97368.72;5003733;28;1075;-53
2021/07/23 10:22:25;;;;;;;;;;;;;;;28.72;38.25;97368.13;5012583;28;1350;-50
2021/07/23 10:24:50;;;;;;;;;;;;;;;28.63;38.58;97361.88;4993886;28;1971;-53
2021/07/23 10:27:15;;;;;;;;;;;;;;;28.63;38.28;97367.19;5011463;28;1584;-52
2021/07/23 10:29:41;;;;;;;;;;;;;;;28.74;38.15;97359.03;5011287;28;1190;-52
2021/07/23 10:32:19;;;;;;;;;;;;;;;28.69;38.37;97352.53;5011479;28;1267;-51
2021/07/23 10:34:44;;;;;;;;;;;;;;;28.70;38.28;97347.06;4992599;28;1612;-53
2021/07/23 10:37:09;;;;;;;;;;;;;;;28.65;38.29;97346.66;4994163;28;1582;-52
2021/07/23 10:39:35;;;;;;;;;;;;;;;28.62;38.38;97344.31;5013482;28;1202;-53
2021/07/23 10:42:00;;;;;;;;;;;;;;;28.69;38.46;97350.69;5011104;28;2042;-53
2021/07/23 10:44:28;;;;;;;;;;;;;;;28.85;37.78;97348.25;5013091;28;1914;-53
2021/07/23 10:46:56;;;;;;;;;;;;;;;28.72;38.10;97339.78;5009872;28;1406;-52
2021/07/23 10:49:24;;;;;;;;;;;;;;;28.68;38.41;97337.59;5007802;28;1533;-50
2021/07/23 10:51:52;;;;;;;;;;;;;;;28.52;38.65;97328.41;5012091;28;1229;-53
2021/07/23 10:54:18;;;;;;;;;;;;;;;28.64;38.63;97331.72;5012881;28;1272;-53
2021/07/23 10:57:02;;;;;;;;;;;;;;;28.62;38.44;97323.91;5010175;28;1594;-52
2021/07/23 10:59:42;;;;;;;;;;;;;;;28.60;38.69;97319.75;5010656;28;1291;-51
2021/07/23 11:02:10;;;;;;;;;;;;;;;28.55;38.73;97314.84;5012404;28;1134;-52
2021/07/23 11:04:35;;;;;;;;;;;;;;;28.64;38.47;97316.63;5009862;28;1918;-53
2021/07/23 11:07:01;;;;;;;;;;;;;;;28.64;38.43;97307.84;5009723;28;1745;-54
2021/07/23 11:09:31;;;;;;;;;;;;;;;28.65;38.37;97318.28;5009535;28;1193;-50
2021/07/23 11:11:56;;;;;;;;;;;;;;;28.67;38.44;97320.78;5010071;28;1694;-53
2021/07/23 11:14:21;;;;;;;;;;;;;;;28.64;38.32;97310.47;5010178;28;1677;-53
2021/07/23 11:16:46;;;;;;;;;;;;;;;28.62;38.42;97313.28;5010831;28;1311;-53
2021/07/23 11:19:22;;;;;;;;;;;;;;;28.60;38.45;97309.97;5009925;28;1145;-52
2021/07/23 11:21:48;;;;;;;;;;;;;;;28.59;38.34;97308.25;5008872;28;1135;-53
2021/07/23 11:24:13;;;;;;;;;;;;;;;28.60;38.52;97304.66;5011146;28;1910;-53
2021/07/23 11:26:39;;;;;;;;;;;;;;;28.69;38.20;97302.09;5009469;28;1659;-52
2021/07/23 11:29:04;;;;;;;;;;;;;;;28.56;38.55;97305.91;5009700;28;1378;-52
2021/07/23 11:31:32;;;;;;;;;;;;;;;28.66;38.35;97305.84;5008801;28;1301;-52
2021/07/23 11:33:57;;;;;;;;;;;;;;;28.66;38.34;97300.56;5009624;28;1665;-52
2021/07/23 11:36:32;;;;;;;;;;;;;;;28.66;38.36;97303.22;5010697;28;1189;-52
2021/07/23 11:39:04;;;;;;;;;;;;;;;28.63;38.38;97299.03;5011548;28;1193;-53
2021/07/23 11:41:30;;;;;;;;;;;;;;;28.63;38.42;97298.22;5009588;28;1569;-53
2021/07/23 11:44:10;;;;;;;;;;;;;;;28.63;38.49;97293.72;5010029;28;1910;-52
2021/07/23 11:46:36;;;;;;;;;;;;;;;28.56;38.51;97289.16;5009670;28;1299;-52
2021/07/23 11:49:01;;;;;;;;;;;;;;;28.60;38.27;97285.25;5009818;28;1596;-50
2021/07/23 11:51:56;;;;;;;;;;;;;;;28.52;38.61;97285.97;5011278;28;1194;-53
2021/07/23 11:54:21;;;;;;;;;;;;;;;28.51;38.62;97278.13;5000367;28;1364;-52
2021/07/23 11:56:46;;;;;;;;;;;;;;;28.72;38.25;97281.41;5008272;28;1615;-53
2021/07/23 11:59:11;;;;;;;;;;;;;;;28.65;38.19;97273.19;5011899;28;1205;-53
2021/07/23 12:01:37;;;;;;;;;;;;;;;28.61;38.26;97276.28;4989778;28;1371;-52
2021/07/23 12:04:02;;;;;;;;;;;;;;;28.68;38.20;97264.13;5006328;28;1914;-52
2021/07/23 12:06:30;;;;;;;;;;;;;;;28.65;38.15;97265.22;5004258;28;1802;-50
2021/07/23 12:08:56;;;;;;;;;;;;;;;28.67;38.25;97259.75;5009701;28;1563;-52
2021/07/23 12:11:23;;;;;;;;;;;;;;;28.64;38.55;97260.91;5005873;28;1714;-53
2021/07/23 12:13:49;;;;;;;;;;;;;;;28.65;38.38;97253.78;5005620;28;1628;-52
2021/07/23 12:16:15;;;;;;;;;;;;;;;28.74;38.34;97246.75;5010663;28;1173;-52
2021/07/23 12:18:41;;;;;;;;;;;;;;;28.74;38.27;97252.06;4990640;28;1671;-53
2021/07/23 12:21:07;;;;;;;;;;;;;;;28.66;38.28;97242.19;4993932;28;1297;-53
2021/07/23 12:23:32;;;;;;;;;;;;;;;28.54;38.56;97246.03;5010268;28;1347;-53
2021/07/23 12:25:57;;;;;;;;;;;;;;;28.63;38.36;97245.97;5005173;28;1962;-53
2021/07/23 12:28:24;;;;;;;;;;;;;;;28.73;38.40;97242.44;4993793;28;1202;-50
2021/07/23 12:30:49;;;;;;;;;;;;;;;28.57;38.38;97240.41;5009617;28;1339;-52
2021/07/23 12:33:27;;;;;;;;;;;;;;;28.67;38.23;97240.34;5007560;28;1633;-53
2021/07/23 12:35:57;;;;;;;;;;;;;;;28.58;38.40;97234.97;5008694;28;1382;-53
2021/07/23 12:38:22;;;;;;;;;;;;;;;28.63;38.18;97248.63;5010305;28;1130;-51
2021/07/23 12:40:51;;;;;;;;;;;;;;;28.73;38.11;97237.94;5008125;28;1641;-53
2021/07/23 12:43:17;;;;;;;;;;;;;;;28.74;38.00;97244.91;5009219;28;1355;-53
2021/07/23 12:45:42;;;;;;;;;;;;;;;28.56;38.52;97244.88;5005886;28;1915;-53
2021/07/23 12:48:11;;;;;;;;;;;;;;;28.67;38.23;97238.53;5009471;28;1339;-52
2021/07/23 12:50:36;;;;;;;;;;;;;;;28.77;37.96;97235.84;5005865;28;1677;-52
2021/07/23 12:53:01;;;;;;;;;;;;;;;28.60;38.45;97234.84;4990601;28;1455;-52